createdAt,value
2019-02-24T00:00:36.130Z,20.09
2019-02-24T00:01:36.087Z,20.16
2019-02-24T00:02:36.103Z,20.13
2019-02-24T00:03:36.068Z,20.14
2019-02-24T00:04:36.113Z,20.13
2019-02-24T00:05:36.051Z,20.13
2019-02-24T00:06:36.026Z,20.06
2019-02-24T00:07:36.005Z,20.07
2019-02-24T00:08:36.002Z,20.03
2019-02-24T00:09:35.981Z,20.03
2019-02-24T00:10:35.986Z,20.04
2019-02-24T00:11:36.022Z,20.03
2019-02-24T00:12:35.981Z,20.00
2019-02-24T00:13:35.955Z,19.99
2019-02-24T00:14:35.932Z,20.02
2019-02-24T00:15:35.912Z,20.00
2019-02-24T00:16:35.917Z,20.00
2019-02-24T00:17:35.912Z,20.02
2019-02-24T00:18:35.899Z,19.92
2019-02-24T00:19:35.882Z,19.94
2019-02-24T00:20:35.878Z,19.94
2019-02-24T00:21:35.905Z,19.91
2019-02-24T00:22:35.838Z,19.96
2019-02-24T00:23:35.843Z,19.96
2019-02-24T00:24:35.826Z,19.92
2019-02-24T00:25:35.802Z,19.95
2019-02-24T00:26:35.798Z,19.88
2019-02-24T00:27:35.795Z,20.00
2019-02-24T00:28:35.772Z,19.96
2019-02-24T00:29:35.791Z,19.92
2019-02-24T00:30:35.828Z,19.95
2019-02-24T00:31:35.769Z,20.02
2019-02-24T00:32:35.788Z,20.03
2019-02-24T00:33:35.718Z,20.00
2019-02-24T00:34:35.717Z,20.06
2019-02-24T00:35:35.697Z,20.06
2019-02-24T00:36:35.735Z,20.09
2019-02-24T00:37:35.688Z,20.07
2019-02-24T00:38:35.669Z,20.09
2019-02-24T00:39:35.643Z,20.09
2019-02-24T00:40:35.641Z,20.13
2019-02-24T00:41:35.631Z,20.10
2019-02-24T00:42:35.623Z,20.13
2019-02-24T00:43:35.603Z,20.10
2019-02-24T00:44:35.608Z,20.13
2019-02-24T00:45:35.599Z,20.16
2019-02-24T00:46:35.570Z,20.10
2019-02-24T00:47:35.565Z,20.14
2019-02-24T00:48:35.585Z,20.09
2019-02-24T00:49:35.550Z,20.09
2019-02-24T00:50:35.567Z,20.03
2019-02-24T00:51:35.510Z,20.03
2019-02-24T00:52:35.515Z,20.04
2019-02-24T00:53:35.511Z,20.00
2019-02-24T00:54:35.485Z,19.95
2019-02-24T00:55:35.467Z,19.96
2019-02-24T00:56:35.457Z,19.94
2019-02-24T00:57:35.494Z,19.91
2019-02-24T00:58:35.443Z,19.95
2019-02-24T00:59:35.427Z,19.88
2019-02-24T01:00:35.410Z,19.88
2019-02-24T01:01:35.430Z,19.89
2019-02-24T01:02:35.415Z,19.91
2019-02-24T01:03:35.381Z,19.86
2019-02-24T01:04:35.366Z,19.86
2019-02-24T01:05:35.354Z,19.84
2019-02-24T01:06:35.397Z,20.04
2019-02-24T01:07:35.395Z,19.96
2019-02-24T01:08:35.326Z,19.84
2019-02-24T01:09:35.322Z,19.85
2019-02-24T01:10:35.318Z,19.85
2019-02-24T01:11:35.288Z,20.02
2019-02-24T01:12:35.341Z,19.99
2019-02-24T01:13:35.278Z,19.82
2019-02-24T01:14:35.256Z,19.89
2019-02-24T01:15:35.244Z,19.88
2019-02-24T01:16:35.299Z,19.89
2019-02-24T01:17:35.259Z,19.89
2019-02-24T01:18:35.213Z,19.88
2019-02-24T01:19:35.215Z,19.85
2019-02-24T01:20:35.191Z,19.92
2019-02-24T01:21:35.201Z,19.89
2019-02-24T01:22:35.305Z,19.94
2019-02-24T01:23:35.161Z,19.89
2019-02-24T01:24:35.153Z,19.86
2019-02-24T01:25:35.139Z,19.81
2019-02-24T01:26:35.158Z,19.85
2019-02-24T01:27:35.246Z,19.88
2019-02-24T01:28:35.132Z,19.85
2019-02-24T01:29:35.126Z,19.91
2019-02-24T01:30:35.107Z,20.03
2019-02-24T01:31:35.106Z,20.02
2019-02-24T01:32:35.074Z,20.02
2019-02-24T01:33:35.042Z,20.00
2019-02-24T01:34:35.046Z,20.03
2019-02-24T01:35:35.032Z,20.06
2019-02-24T01:36:35.018Z,20.04
2019-02-24T01:37:35.025Z,20.03
2019-02-24T01:38:35.041Z,20.04
2019-02-24T01:39:34.977Z,20.03
2019-02-24T01:40:34.976Z,20.03
2019-02-24T01:41:34.979Z,20.02
2019-02-24T01:42:35.026Z,19.99
2019-02-24T01:43:34.940Z,19.92
2019-02-24T01:44:34.913Z,19.92
2019-02-24T01:45:34.901Z,19.88
2019-02-24T01:46:34.896Z,19.94
2019-02-24T01:47:34.889Z,19.92
2019-02-24T01:48:34.904Z,19.85
2019-02-24T01:49:34.856Z,19.92
2019-02-24T01:50:34.845Z,19.79
2019-02-24T01:51:34.836Z,19.84
2019-02-24T01:52:34.828Z,19.88
2019-02-24T01:53:34.819Z,19.85
2019-02-24T01:54:34.826Z,19.85
2019-02-24T01:55:34.796Z,19.91
2019-02-24T01:56:34.780Z,19.76
2019-02-24T01:57:34.879Z,19.88
2019-02-24T01:58:35.472Z,19.81
2019-02-24T01:59:34.752Z,19.81
2019-02-24T02:00:34.754Z,19.76
2019-02-24T02:01:34.738Z,19.74
2019-02-24T02:02:34.719Z,19.66
2019-02-24T02:03:34.748Z,19.73
2019-02-24T02:04:34.784Z,19.74
2019-02-24T02:05:34.684Z,19.73
2019-02-24T02:06:34.724Z,19.67
2019-02-24T02:07:34.704Z,19.76
2019-02-24T02:08:34.660Z,19.76
2019-02-24T02:09:34.637Z,19.74
2019-02-24T02:10:34.628Z,19.82
2019-02-24T02:11:34.668Z,19.82
2019-02-24T02:12:34.616Z,19.73
2019-02-24T02:13:34.649Z,19.91
2019-02-24T02:14:34.600Z,19.85
2019-02-24T02:15:34.574Z,19.92
2019-02-24T02:16:34.558Z,19.91
2019-02-24T02:17:34.623Z,19.96
2019-02-24T02:18:34.561Z,19.85
2019-02-24T02:19:34.576Z,19.88
2019-02-24T02:20:34.516Z,20.00
2019-02-24T02:21:34.504Z,19.82
2019-02-24T02:22:34.548Z,19.96
2019-02-24T02:23:34.504Z,20.04
2019-02-24T02:24:34.478Z,19.95
2019-02-24T02:25:34.471Z,19.92
2019-02-24T02:26:34.454Z,20.03
2019-02-24T02:27:34.532Z,20.00
2019-02-24T02:28:34.448Z,19.88
2019-02-24T02:29:34.415Z,19.94
2019-02-24T02:30:34.409Z,19.92
2019-02-24T02:31:34.398Z,19.96
2019-02-24T02:32:34.406Z,19.91
2019-02-24T02:33:34.402Z,19.94
2019-02-24T02:34:34.354Z,19.85
2019-02-24T02:35:34.362Z,19.89
2019-02-24T02:36:34.390Z,19.74
2019-02-24T02:37:34.322Z,19.71
2019-02-24T02:38:34.355Z,19.86
2019-02-24T02:39:34.344Z,19.79
2019-02-24T02:40:34.297Z,19.77
2019-02-24T02:41:34.321Z,19.74
2019-02-24T02:42:34.262Z,19.77
2019-02-24T02:43:34.262Z,19.77
2019-02-24T02:44:34.242Z,19.79
2019-02-24T02:45:34.230Z,19.86
2019-02-24T02:46:34.244Z,19.77
2019-02-24T02:47:34.207Z,19.81
2019-02-24T02:48:34.202Z,19.79
2019-02-24T02:49:34.200Z,19.71
2019-02-24T02:50:34.174Z,19.74
2019-02-24T02:51:34.167Z,19.62
2019-02-24T02:52:34.167Z,19.62
2019-02-24T02:53:34.156Z,19.62
2019-02-24T02:54:34.153Z,19.55
2019-02-24T02:55:34.127Z,19.62
2019-02-24T02:56:34.118Z,19.62
2019-02-24T02:57:34.163Z,19.58
2019-02-24T02:58:34.121Z,19.62
2019-02-24T02:59:34.102Z,19.62
2019-02-24T03:00:34.064Z,19.66
2019-02-24T03:01:34.066Z,19.58
2019-02-24T03:02:34.045Z,19.63
2019-02-24T03:03:34.075Z,19.73
2019-02-24T03:04:34.034Z,19.76
2019-02-24T03:05:34.020Z,19.79
2019-02-24T03:06:34.006Z,19.77
2019-02-24T03:07:33.990Z,19.81
2019-02-24T03:08:33.974Z,19.82
2019-02-24T03:09:34.006Z,19.79
2019-02-24T03:10:33.973Z,19.84
2019-02-24T03:11:33.965Z,19.88
2019-02-24T03:12:33.947Z,19.92
2019-02-24T03:13:33.924Z,19.84
2019-02-24T03:14:33.925Z,19.89
2019-02-24T03:15:33.904Z,19.86
2019-02-24T03:16:33.891Z,19.82
2019-02-24T03:17:33.917Z,19.95
2019-02-24T03:18:33.909Z,19.84
2019-02-24T03:19:33.882Z,19.77
2019-02-24T03:20:33.843Z,19.76
2019-02-24T03:21:33.858Z,19.86
2019-02-24T03:22:33.890Z,19.84
2019-02-24T03:23:33.819Z,19.77
2019-02-24T03:24:33.812Z,19.79
2019-02-24T03:25:33.818Z,19.77
2019-02-24T03:26:33.808Z,19.74
2019-02-24T03:27:33.818Z,19.69
2019-02-24T03:28:33.826Z,19.64
2019-02-24T03:29:33.756Z,19.76
2019-02-24T03:30:33.751Z,19.67
2019-02-24T03:31:33.743Z,19.70
2019-02-24T03:32:33.754Z,19.74
2019-02-24T03:33:33.697Z,19.71
2019-02-24T03:34:33.687Z,19.64
2019-02-24T03:35:33.722Z,19.74
2019-02-24T03:36:33.674Z,19.76
2019-02-24T03:37:33.678Z,19.85
2019-02-24T03:38:33.650Z,19.77
2019-02-24T03:39:33.641Z,19.77
2019-02-24T03:40:33.632Z,19.79
2019-02-24T03:41:33.612Z,19.81
2019-02-24T03:42:33.617Z,19.74
2019-02-24T03:43:33.599Z,19.64
2019-02-24T03:44:33.574Z,19.71
2019-02-24T03:45:33.574Z,19.74
2019-02-24T03:46:33.556Z,19.74
2019-02-24T03:47:33.540Z,19.63
2019-02-24T03:48:33.530Z,19.71
2019-02-24T03:49:33.523Z,19.69
2019-02-24T03:50:33.538Z,19.71
2019-02-24T03:51:33.494Z,19.67
2019-02-24T03:52:33.486Z,19.81
2019-02-24T03:53:33.475Z,19.76
2019-02-24T03:54:33.473Z,19.84
2019-02-24T03:55:33.463Z,19.79
2019-02-24T03:56:33.445Z,19.77
2019-02-24T03:57:33.546Z,19.88
2019-02-24T03:58:33.455Z,19.77
2019-02-24T03:59:33.453Z,19.86
2019-02-24T04:00:33.463Z,19.88
2019-02-24T04:01:33.481Z,19.76
2019-02-24T04:02:33.385Z,19.82
2019-02-24T04:03:33.413Z,19.88
2019-02-24T04:04:33.393Z,19.86
2019-02-24T04:05:33.365Z,19.89
2019-02-24T04:06:33.349Z,19.85
2019-02-24T04:07:33.335Z,19.89
2019-02-24T04:08:33.346Z,19.76
2019-02-24T04:09:33.319Z,19.88
2019-02-24T04:10:33.314Z,19.88
2019-02-24T04:11:33.298Z,19.88
2019-02-24T04:12:33.282Z,19.84
2019-02-24T04:13:33.283Z,19.81
2019-02-24T04:14:33.250Z,19.77
2019-02-24T04:15:33.382Z,19.79
2019-02-24T04:16:33.230Z,19.82
2019-02-24T04:17:33.266Z,19.62
2019-02-24T04:18:33.227Z,19.76
2019-02-24T04:19:33.189Z,19.67
2019-02-24T04:20:33.192Z,19.71
2019-02-24T04:21:33.275Z,19.76
2019-02-24T04:22:33.214Z,19.76
2019-02-24T04:23:33.161Z,19.77
2019-02-24T04:24:33.133Z,19.76
2019-02-24T04:25:33.136Z,19.79
2019-02-24T04:26:33.127Z,19.81
2019-02-24T04:27:33.205Z,19.79
2019-02-24T04:28:33.097Z,19.79
2019-02-24T04:29:33.089Z,19.67
2019-02-24T04:30:33.059Z,19.63
2019-02-24T04:31:33.062Z,19.74
2019-02-24T04:32:33.045Z,19.69
2019-02-24T04:33:33.028Z,19.70
2019-02-24T04:34:33.018Z,19.69
2019-02-24T04:35:33.003Z,19.74
2019-02-24T04:36:32.999Z,19.71
2019-02-24T04:37:32.989Z,19.73
2019-02-24T04:38:32.972Z,19.70
2019-02-24T04:39:33.053Z,19.77
2019-02-24T04:40:32.967Z,19.66
2019-02-24T04:41:32.951Z,19.79
2019-02-24T04:42:32.943Z,19.74
2019-02-24T04:43:33.018Z,19.76
2019-02-24T04:44:32.942Z,19.76
2019-02-24T04:45:32.906Z,19.63
2019-02-24T04:46:32.922Z,19.71
2019-02-24T04:47:32.878Z,19.77
2019-02-24T04:48:32.900Z,19.81
2019-02-24T04:49:32.872Z,19.74
2019-02-24T04:50:32.840Z,19.81
2019-02-24T04:51:32.840Z,19.81
2019-02-24T04:52:32.887Z,19.82
2019-02-24T04:53:32.806Z,19.82
2019-02-24T04:54:32.807Z,19.79
2019-02-24T04:55:32.812Z,19.81
2019-02-24T04:56:32.825Z,19.81
2019-02-24T04:57:32.830Z,19.79
2019-02-24T04:58:32.749Z,19.74
2019-02-24T04:59:35.290Z,19.74
2019-02-24T05:00:32.736Z,19.81
2019-02-24T05:01:32.724Z,19.81
2019-02-24T05:02:32.699Z,19.81
2019-02-24T05:03:32.699Z,19.76
2019-02-24T05:04:32.695Z,19.81
2019-02-24T05:05:32.675Z,19.81
2019-02-24T05:06:32.760Z,19.82
2019-02-24T05:07:32.648Z,19.79
2019-02-24T05:08:32.652Z,19.84
2019-02-24T05:09:32.632Z,19.70
2019-02-24T05:10:32.652Z,19.74
2019-02-24T05:11:32.620Z,19.62
2019-02-24T05:12:32.635Z,19.70
2019-02-24T05:13:32.583Z,19.63
2019-02-24T05:14:32.684Z,19.76
2019-02-24T05:15:32.570Z,19.76
2019-02-24T05:16:32.561Z,19.82
2019-02-24T05:17:32.566Z,19.69
2019-02-24T05:18:32.536Z,19.77
2019-02-24T05:19:32.525Z,19.84
2019-02-24T05:20:32.522Z,19.81
2019-02-24T05:21:32.491Z,19.81
2019-02-24T05:22:32.482Z,19.84
2019-02-24T05:23:32.480Z,19.79
2019-02-24T05:24:32.473Z,19.82
2019-02-24T05:25:32.495Z,19.81
2019-02-24T05:26:32.438Z,19.73
2019-02-24T05:27:32.475Z,19.63
2019-02-24T05:28:32.418Z,19.77
2019-02-24T05:29:32.416Z,19.73
2019-02-24T05:30:32.417Z,19.69
2019-02-24T05:31:32.455Z,19.73
2019-02-24T05:32:32.395Z,19.82
2019-02-24T05:33:32.516Z,19.79
2019-02-24T05:34:32.351Z,19.82
2019-02-24T05:35:32.347Z,19.79
2019-02-24T05:36:32.377Z,19.79
2019-02-24T05:37:32.332Z,19.79
2019-02-24T05:38:32.312Z,19.79
2019-02-24T05:39:32.373Z,19.84
2019-02-24T05:40:32.290Z,19.81
2019-02-24T05:41:32.296Z,19.77
2019-02-24T05:42:32.276Z,19.89
2019-02-24T05:43:32.253Z,19.88
2019-02-24T05:44:32.236Z,19.76
2019-02-24T05:45:32.243Z,19.85
2019-02-24T05:46:32.219Z,19.86
2019-02-24T05:47:32.228Z,19.86
2019-02-24T05:48:33.705Z,19.91
2019-02-24T05:49:32.278Z,19.88
2019-02-24T05:50:32.194Z,19.88
2019-02-24T05:51:32.168Z,19.85
2019-02-24T05:52:32.170Z,19.85
2019-02-24T05:53:32.159Z,19.82
2019-02-24T05:54:32.128Z,19.86
2019-02-24T05:55:32.144Z,19.89
2019-02-24T05:56:32.136Z,19.81
2019-02-24T05:57:32.209Z,19.84
2019-02-24T05:58:32.073Z,19.79
2019-02-24T05:59:32.068Z,19.85
2019-02-24T06:00:32.064Z,19.77
2019-02-24T06:01:32.051Z,19.84
2019-02-24T06:02:32.049Z,19.73
2019-02-24T06:03:32.018Z,19.82
2019-02-24T06:04:32.006Z,19.74
2019-02-24T06:05:32.029Z,19.79
2019-02-24T06:06:31.989Z,19.76
2019-02-24T06:07:33.252Z,19.74
2019-02-24T06:08:31.962Z,19.82
2019-02-24T06:09:31.969Z,19.79
2019-02-24T06:10:31.978Z,19.77
2019-02-24T06:11:31.929Z,19.77
2019-02-24T06:12:31.941Z,19.76
2019-02-24T06:13:31.913Z,19.79
2019-02-24T06:14:31.923Z,19.79
2019-02-24T06:15:31.885Z,19.69
2019-02-24T06:16:31.876Z,19.74
2019-02-24T06:17:31.893Z,19.81
2019-02-24T06:18:31.864Z,19.67
2019-02-24T06:19:31.873Z,19.77
2019-02-24T06:20:31.915Z,19.74
2019-02-24T06:21:31.877Z,19.84
2019-02-24T06:22:31.837Z,19.76
2019-02-24T06:23:31.801Z,19.77
2019-02-24T06:24:31.782Z,19.74
2019-02-24T06:25:31.788Z,19.85
2019-02-24T06:26:31.788Z,19.82
2019-02-24T06:27:31.858Z,19.79
2019-02-24T06:28:31.759Z,19.85
2019-02-24T06:29:31.729Z,19.81
2019-02-24T06:30:31.714Z,19.85
2019-02-24T06:31:31.740Z,19.79
2019-02-24T06:32:31.692Z,19.86
2019-02-24T06:33:31.691Z,19.86
2019-02-24T06:34:31.678Z,19.88
2019-02-24T06:35:31.658Z,19.91
2019-02-24T06:36:31.656Z,19.86
2019-02-24T06:37:31.648Z,19.92
2019-02-24T06:38:31.637Z,19.89
2019-02-24T06:39:31.687Z,19.85
2019-02-24T06:40:31.607Z,19.86
2019-02-24T06:41:31.684Z,19.89
2019-02-24T06:42:31.627Z,19.91
2019-02-24T06:43:31.588Z,19.88
2019-02-24T06:44:31.575Z,19.91
2019-02-24T06:45:31.558Z,19.74
2019-02-24T06:46:31.552Z,19.73
2019-02-24T06:47:31.575Z,19.81
2019-02-24T06:48:31.536Z,19.82
2019-02-24T06:49:31.536Z,19.77
2019-02-24T06:50:35.329Z,19.79
2019-02-24T06:51:31.496Z,19.82
2019-02-24T06:52:31.486Z,19.76
2019-02-24T06:53:31.481Z,19.82
2019-02-24T06:54:31.491Z,19.84
2019-02-24T06:55:31.439Z,19.79
2019-02-24T06:56:31.421Z,19.82
2019-02-24T06:57:31.542Z,19.77
2019-02-24T06:58:31.415Z,19.73
2019-02-24T06:59:31.416Z,19.84
2019-02-24T07:00:31.401Z,19.85
2019-02-24T07:01:31.373Z,19.88
2019-02-24T07:02:31.363Z,19.85
2019-02-24T07:03:31.403Z,19.82
2019-02-24T07:04:31.342Z,19.88
2019-02-24T07:05:31.329Z,19.89
2019-02-24T07:06:31.314Z,19.88
2019-02-24T07:07:31.325Z,19.89
2019-02-24T07:08:31.371Z,19.85
2019-02-24T07:09:31.280Z,19.85
2019-02-24T07:10:31.305Z,19.84
2019-02-24T07:11:31.276Z,19.71
2019-02-24T07:12:31.257Z,19.85
2019-02-24T07:13:31.322Z,19.79
2019-02-24T07:14:31.220Z,19.86
2019-02-24T07:15:31.223Z,19.79
2019-02-24T07:16:31.244Z,19.88
2019-02-24T07:17:31.201Z,19.88
2019-02-24T07:18:31.188Z,19.86
2019-02-24T07:19:31.178Z,19.85
2019-02-24T07:20:31.198Z,19.85
2019-02-24T07:21:31.198Z,19.89
2019-02-24T07:22:31.161Z,19.92
2019-02-24T07:23:31.366Z,19.84
2019-02-24T07:24:31.126Z,19.88
2019-02-24T07:25:31.128Z,19.91
2019-02-24T07:26:31.104Z,19.89
2019-02-24T07:27:31.142Z,19.91
2019-02-24T07:28:31.074Z,19.88
2019-02-24T07:29:31.068Z,19.85
2019-02-24T07:30:31.047Z,19.82
2019-02-24T07:31:31.051Z,19.86
2019-02-24T07:32:31.049Z,19.84
2019-02-24T07:33:31.027Z,19.85
2019-02-24T07:34:30.998Z,19.91
2019-02-24T07:35:30.983Z,19.96
2019-02-24T07:36:30.978Z,19.96
2019-02-24T07:37:30.964Z,19.88
2019-02-24T07:38:30.969Z,19.89
2019-02-24T07:39:30.978Z,19.94
2019-02-24T07:40:30.953Z,19.84
2019-02-24T07:41:30.945Z,19.92
2019-02-24T07:42:30.913Z,19.89
2019-02-24T07:43:30.916Z,19.85
2019-02-24T07:44:30.938Z,19.91
2019-02-24T07:45:30.901Z,19.85
2019-02-24T07:46:30.882Z,19.88
2019-02-24T07:47:30.860Z,19.85
2019-02-24T07:48:30.869Z,19.95
2019-02-24T07:49:30.835Z,19.91
2019-02-24T07:50:30.818Z,19.92
2019-02-24T07:51:30.811Z,19.89
2019-02-24T07:52:30.804Z,19.91
2019-02-24T07:53:30.810Z,19.92
2019-02-24T07:54:30.773Z,19.89
2019-02-24T07:55:30.769Z,19.84
2019-02-24T07:56:30.768Z,19.94
2019-02-24T07:57:30.783Z,19.82
2019-02-24T07:58:30.765Z,19.79
2019-02-24T07:59:30.771Z,19.86
2019-02-24T08:00:32.481Z,19.89
2019-02-24T08:01:30.753Z,19.82
2019-02-24T08:02:30.684Z,19.81
2019-02-24T08:03:30.748Z,19.82
2019-02-24T08:04:30.710Z,19.91
2019-02-24T08:05:30.659Z,19.92
2019-02-24T08:06:30.684Z,19.94
2019-02-24T08:07:30.624Z,19.96
2019-02-24T08:08:30.615Z,20.03
2019-02-24T08:09:30.658Z,20.00
2019-02-24T08:10:30.601Z,19.96
2019-02-24T08:11:30.591Z,19.92
2019-02-24T08:12:30.583Z,19.94
2019-02-24T08:13:30.588Z,19.91
2019-02-24T08:14:30.602Z,19.88
2019-02-24T08:15:30.545Z,19.92
2019-02-24T08:16:30.530Z,20.04
2019-02-24T08:17:30.520Z,19.94
2019-02-24T08:18:30.512Z,19.92
2019-02-24T08:19:30.598Z,19.95
2019-02-24T08:20:30.490Z,20.00
2019-02-24T08:21:30.469Z,20.03
2019-02-24T08:22:30.523Z,19.92
2019-02-24T08:23:30.449Z,20.00
2019-02-24T08:24:30.451Z,20.02
2019-02-24T08:25:30.431Z,20.00
2019-02-24T08:26:30.411Z,19.95
2019-02-24T08:27:30.518Z,20.00
2019-02-24T08:28:30.394Z,20.02
2019-02-24T08:29:30.412Z,19.92
2019-02-24T08:30:30.425Z,19.88
2019-02-24T08:31:30.387Z,19.85
2019-02-24T08:32:30.357Z,19.86
2019-02-24T08:33:30.336Z,19.92
2019-02-24T08:34:30.334Z,19.85
2019-02-24T08:35:30.313Z,19.91
2019-02-24T08:36:30.340Z,19.88
2019-02-24T08:37:30.299Z,20.03
2019-02-24T08:38:30.280Z,20.02
2019-02-24T08:39:30.359Z,20.03
2019-02-24T08:40:30.301Z,20.00
2019-02-24T08:41:30.331Z,20.09
2019-02-24T08:42:30.261Z,20.04
2019-02-24T08:43:30.243Z,20.04
2019-02-24T08:44:30.230Z,20.04
2019-02-24T08:45:30.200Z,20.02
2019-02-24T08:46:30.207Z,19.94
2019-02-24T08:47:30.231Z,20.02
2019-02-24T08:48:30.182Z,20.00
2019-02-24T08:49:30.168Z,20.00
2019-02-24T08:50:30.294Z,19.92
2019-02-24T08:51:30.146Z,20.02
2019-02-24T08:52:30.125Z,20.07
2019-02-24T08:53:30.108Z,19.96
2019-02-24T08:54:30.116Z,20.04
2019-02-24T08:55:30.093Z,20.03
2019-02-24T08:56:30.083Z,19.92
2019-02-24T08:57:30.156Z,19.94
2019-02-24T08:58:30.066Z,20.03
2019-02-24T08:59:30.094Z,20.04
2019-02-24T09:00:30.054Z,20.03
2019-02-24T09:01:30.080Z,20.03
2019-02-24T09:02:30.065Z,20.07
2019-02-24T09:03:30.102Z,20.04
2019-02-24T09:04:30.036Z,20.04
2019-02-24T09:05:30.022Z,20.06
2019-02-24T09:06:29.966Z,20.11
2019-02-24T09:07:30.002Z,20.10
2019-02-24T09:08:30.004Z,20.13
2019-02-24T09:09:29.992Z,20.11
2019-02-24T09:10:29.983Z,20.13
2019-02-24T09:11:29.907Z,20.09
2019-02-24T09:12:29.908Z,20.04
2019-02-24T09:13:29.935Z,20.14
2019-02-24T09:14:29.871Z,20.10
2019-02-24T09:15:29.882Z,20.11
2019-02-24T09:16:29.862Z,20.10
2019-02-24T09:17:29.855Z,20.13
2019-02-24T09:18:29.882Z,20.16
2019-02-24T09:19:29.815Z,20.09
2019-02-24T09:20:29.812Z,20.16
2019-02-24T09:21:29.821Z,20.14
2019-02-24T09:22:29.786Z,20.21
2019-02-24T09:23:29.773Z,20.09
2019-02-24T09:24:29.768Z,20.09
2019-02-24T09:25:29.763Z,20.09
2019-02-24T09:26:29.769Z,20.07
2019-02-24T09:27:29.819Z,20.10
2019-02-24T09:28:29.738Z,20.07
2019-02-24T09:29:29.789Z,20.09
2019-02-24T09:30:29.723Z,20.13
2019-02-24T09:31:29.699Z,20.11
2019-02-24T09:32:29.675Z,20.11
2019-02-24T09:33:29.719Z,20.16
2019-02-24T09:34:29.769Z,20.22
2019-02-24T09:35:29.650Z,20.21
2019-02-24T09:36:29.634Z,20.18
2019-02-24T09:37:29.620Z,20.16
2019-02-24T09:38:29.608Z,20.19
2019-02-24T09:39:29.606Z,20.22
2019-02-24T09:40:29.608Z,20.14
2019-02-24T09:41:29.582Z,20.16
2019-02-24T09:42:29.562Z,20.16
2019-02-24T09:43:29.545Z,20.14
2019-02-24T09:44:29.558Z,20.16
2019-02-24T09:45:29.537Z,20.16
2019-02-24T09:46:29.515Z,20.09
2019-02-24T09:47:29.507Z,20.25
2019-02-24T09:48:29.521Z,20.16
2019-02-24T09:49:29.508Z,20.22
2019-02-24T09:50:29.484Z,20.18
2019-02-24T09:51:29.458Z,20.13
2019-02-24T09:52:29.483Z,20.18
2019-02-24T09:53:29.442Z,20.25
2019-02-24T09:54:29.458Z,20.18
2019-02-24T09:55:29.431Z,20.21
2019-02-24T09:56:29.400Z,20.26
2019-02-24T09:57:29.462Z,20.26
2019-02-24T09:58:29.378Z,20.25
2019-02-24T09:59:29.366Z,20.28
2019-02-24T10:00:29.403Z,20.26
2019-02-24T10:01:29.406Z,20.34
2019-02-24T10:02:29.335Z,20.29
2019-02-24T10:03:29.334Z,20.34
2019-02-24T10:04:29.344Z,20.31
2019-02-24T10:05:29.300Z,20.34
2019-02-24T10:06:29.335Z,20.28
2019-02-24T10:07:29.302Z,20.29
2019-02-24T10:08:29.271Z,20.37
2019-02-24T10:09:29.257Z,20.34
2019-02-24T10:10:29.253Z,20.28
2019-02-24T10:11:29.240Z,20.26
2019-02-24T10:12:29.243Z,20.32
2019-02-24T10:13:29.236Z,20.29
2019-02-24T10:14:29.199Z,20.28
2019-02-24T10:15:29.191Z,20.26
2019-02-24T10:16:29.187Z,20.31
2019-02-24T10:17:30.870Z,20.28
2019-02-24T10:18:29.165Z,20.31
2019-02-24T10:19:31.181Z,20.29
2019-02-24T10:20:29.176Z,20.25
2019-02-24T10:21:29.131Z,20.34
2019-02-24T10:22:29.108Z,20.32
2019-02-24T10:23:29.106Z,20.41
2019-02-24T10:24:29.095Z,20.47
2019-02-24T10:25:29.076Z,20.47
2019-02-24T10:26:29.084Z,20.44
2019-02-24T10:27:34.005Z,20.40
2019-02-24T10:28:29.058Z,20.40
2019-02-24T10:29:29.038Z,20.39
2019-02-24T10:30:29.030Z,20.36
2019-02-24T10:31:29.027Z,20.41
2019-02-24T10:32:28.998Z,20.39
2019-02-24T10:33:28.988Z,20.39
2019-02-24T10:34:28.982Z,20.37
2019-02-24T10:35:28.998Z,20.37
2019-02-24T10:36:29.297Z,20.41
2019-02-24T10:37:28.986Z,20.43
2019-02-24T10:38:28.932Z,20.41
2019-02-24T10:39:29.868Z,20.39
2019-02-24T10:40:28.910Z,20.43
2019-02-24T10:41:28.907Z,20.52
2019-02-24T10:42:28.938Z,20.40
2019-02-24T10:43:28.902Z,20.47
2019-02-24T10:44:28.886Z,20.47
2019-02-24T10:45:28.887Z,20.52
2019-02-24T10:46:28.895Z,20.47
2019-02-24T10:47:28.831Z,20.47
2019-02-24T10:48:28.820Z,20.44
2019-02-24T10:49:28.826Z,20.47
2019-02-24T10:50:28.799Z,20.48
2019-02-24T10:51:28.797Z,20.47
2019-02-24T10:52:30.673Z,20.48
2019-02-24T10:53:28.772Z,20.47
2019-02-24T10:54:28.763Z,20.56
2019-02-24T10:55:28.744Z,20.50
2019-02-24T10:56:28.732Z,20.50
2019-02-24T10:57:28.818Z,20.50
2019-02-24T10:58:34.734Z,20.56
2019-02-24T10:59:29.726Z,20.60
2019-02-24T11:00:28.691Z,20.55
2019-02-24T11:01:29.886Z,20.56
2019-02-24T11:02:28.674Z,20.52
2019-02-24T11:03:28.669Z,20.56
2019-02-24T11:04:28.644Z,20.63
2019-02-24T11:05:28.738Z,20.65
2019-02-24T11:06:28.621Z,20.60
2019-02-24T11:07:28.623Z,20.69
2019-02-24T11:08:28.603Z,20.60
2019-02-24T11:09:28.656Z,20.56
2019-02-24T11:10:28.603Z,20.56
2019-02-24T11:11:28.596Z,20.51
2019-02-24T11:12:28.577Z,20.55
2019-02-24T11:13:28.557Z,20.56
2019-02-24T11:14:28.543Z,20.56
2019-02-24T11:15:28.559Z,20.56
2019-02-24T11:16:28.507Z,20.63
2019-02-24T11:17:28.522Z,20.63
2019-02-24T11:18:28.502Z,20.67
2019-02-24T11:19:28.486Z,20.75
2019-02-24T11:20:28.542Z,20.72
2019-02-24T11:21:28.466Z,20.67
2019-02-24T11:22:28.472Z,20.67
2019-02-24T11:23:28.437Z,20.69
2019-02-24T11:24:28.423Z,20.69
2019-02-24T11:25:28.418Z,20.72
2019-02-24T11:26:28.400Z,20.66
2019-02-24T11:27:28.464Z,20.69
2019-02-24T11:28:28.381Z,20.63
2019-02-24T11:29:28.381Z,20.66
2019-02-24T11:30:28.366Z,20.62
2019-02-24T11:31:28.420Z,20.65
2019-02-24T11:32:28.356Z,20.72
2019-02-24T11:33:28.317Z,20.74
2019-02-24T11:34:28.328Z,20.70
2019-02-24T11:35:28.310Z,20.69
2019-02-24T11:36:28.303Z,20.69
2019-02-24T11:37:28.304Z,20.77
2019-02-24T11:38:28.314Z,20.77
2019-02-24T11:39:28.382Z,20.72
2019-02-24T11:40:28.260Z,20.84
2019-02-24T11:41:28.248Z,20.72
2019-02-24T11:42:28.237Z,20.66
2019-02-24T11:43:28.226Z,20.69
2019-02-24T11:44:28.207Z,20.74
2019-02-24T11:45:28.192Z,20.67
2019-02-24T11:46:28.182Z,20.66
2019-02-24T11:47:28.193Z,20.66
2019-02-24T11:48:28.175Z,20.72
2019-02-24T11:49:28.140Z,20.81
2019-02-24T11:50:28.129Z,20.84
2019-02-24T11:51:28.234Z,20.85
2019-02-24T11:52:28.148Z,20.81
2019-02-24T11:53:28.119Z,20.78
2019-02-24T11:54:28.119Z,20.80
2019-02-24T11:55:28.072Z,20.85
2019-02-24T11:56:28.071Z,20.85
2019-02-24T11:57:28.102Z,20.75
2019-02-24T11:58:28.053Z,20.75
2019-02-24T11:59:28.040Z,20.77
2019-02-24T12:00:28.015Z,20.82
2019-02-24T12:01:28.003Z,20.80
2019-02-24T12:02:34.229Z,20.77
2019-02-24T12:03:29.003Z,20.84
2019-02-24T12:04:27.975Z,20.82
2019-02-24T12:05:27.959Z,20.85
2019-02-24T12:06:27.962Z,20.82
2019-02-24T12:07:27.936Z,20.87
2019-02-24T12:08:27.949Z,20.85
2019-02-24T12:09:27.969Z,20.82
2019-02-24T12:10:27.958Z,20.87
2019-02-24T12:11:27.935Z,20.84
2019-02-24T12:12:27.882Z,20.81
2019-02-24T12:13:27.883Z,20.85
2019-02-24T12:14:27.865Z,20.80
2019-02-24T12:15:27.860Z,20.82
2019-02-24T12:16:27.846Z,20.88
2019-02-24T12:17:27.840Z,20.81
2019-02-24T12:18:27.822Z,20.85
2019-02-24T12:19:27.803Z,20.80
2019-02-24T12:20:27.791Z,20.84
2019-02-24T12:21:27.782Z,20.80
2019-02-24T12:22:27.773Z,20.82
2019-02-24T12:23:27.797Z,20.95
2019-02-24T12:24:27.747Z,20.99
2019-02-24T12:25:27.744Z,20.96
2019-02-24T12:26:27.731Z,20.93
2019-02-24T12:27:27.738Z,20.95
2019-02-24T12:28:27.746Z,20.92
2019-02-24T12:29:27.707Z,20.90
2019-02-24T12:30:27.692Z,20.95
2019-02-24T12:31:27.725Z,20.97
2019-02-24T12:32:27.663Z,20.85
2019-02-24T12:33:27.675Z,20.93
2019-02-24T12:34:27.638Z,20.92
2019-02-24T12:35:27.627Z,20.93
2019-02-24T12:36:27.614Z,20.92
2019-02-24T12:37:27.603Z,20.99
2019-02-24T12:38:27.659Z,21.02
2019-02-24T12:39:27.576Z,21.00
2019-02-24T12:40:27.572Z,21.03
2019-02-24T12:41:27.559Z,21.00
2019-02-24T12:42:27.548Z,21.03
2019-02-24T12:43:27.552Z,20.99
2019-02-24T12:44:27.527Z,21.03
2019-02-24T12:45:27.525Z,21.03
2019-02-24T12:46:27.562Z,21.00
2019-02-24T12:47:27.568Z,20.93
2019-02-24T12:48:27.492Z,21.02
2019-02-24T12:49:27.485Z,21.02
2019-02-24T12:50:27.466Z,21.03
2019-02-24T12:51:27.448Z,20.92
2019-02-24T12:52:27.525Z,21.02